CDT,Max TemperatureF,Mean TemperatureF,Min TemperatureF,Max Dew PointF,MeanDew PointF,Min DewpointF,Max Humidity, Mean Humidity, Min Humidity, Max Sea Level PressureIn, Mean Sea Level PressureIn, Min Sea Level PressureIn, Max VisibilityMiles, Mean VisibilityMiles, Min VisibilityMiles, Max Wind SpeedMPH, Mean Wind SpeedMPH, Max Gust SpeedMPH,PrecipitationIn, CloudCover, Events, WindDirDegrees
2013-3-1,42,37,32,25,23,20,69,57,45,30.25,30.21,30.16,10,10,10,17,10,22,0.00,8,,330
2013-3-2,44,36,27,24,22,19,78,59,39,30.33,30.28,30.24,10,10,10,17,8,29,0.00,5,,333
2013-3-3,56,40,23,33,25,21,92,60,27,30.29,30.16,29.99,10,10,7,15,6,20,0.00,4,,178
2013-3-4,65,52,39,51,43,31,93,73,54,29.97,29.80,29.67,10,10,10,9,6,,0.00,6,,135
2013-3-5,61,51,41,54,34,17,89,57,24,30.28,30.05,29.77,10,9,3,30,15,41,0.08,4,Rain,297
2013-3-6,53,42,31,31,24,21,70,50,30,30.42,30.35,30.29,10,10,10,20,7,24,0.00,2,,345
2013-3-7,57,48,38,35,33,31,79,60,41,30.40,30.33,30.28,10,10,10,13,5,24,0.00,3,,95
2013-3-8,62,49,35,42,36,32,89,63,36,30.37,30.28,30.16,10,10,10,15,7,17,0.02,4,Rain,92
2013-3-9,75,61,47,55,48,40,80,58,35,30.14,30.00,29.86,10,9,7,22,9,28,T,6,Rain,143
2013-3-10,62,51,40,59,51,34,94,82,55,29.95,29.81,29.73,10,7,1,21,13,33,0.87,8,Rain,226
2013-3-11,54,45,35,34,28,24,70,54,38,30.08,29.99,29.94,10,10,10,23,13,31,0.00,3,,301
2013-3-12,62,50,37,36,29,22,82,48,26,30.29,30.18,30.08,10,10,10,12,5,,0.00,2,,304
2013-3-13,59,48,36,29,22,17,59,40,21,30.48,30.40,30.31,10,10,10,16,7,21,0.00,2,,327
2013-3-14,69,55,40,39,33,28,79,48,26,30.43,30.31,30.17,10,10,10,15,5,24,0.00,2,,208
2013-3-15,81,64,47,50,45,39,71,51,30,30.16,30.03,29.89,10,10,10,26,12,37,0.00,2,,227
2013-3-16,80,68,56,53,50,46,75,57,38,29.91,29.86,29.78,10,10,10,22,13,29,0.00,4,,208
2013-3-17,64,55,45,52,46,44,100,84,67,29.92,29.83,29.72,10,5,1,15,8,20,T,7,Rain,60
2013-3-18,63,54,45,50,47,33,100,76,52,30.09,29.82,29.70,10,5,0,24,8,31,0.58,7,Rain-Thunderstorm,331
2013-3-19,60,48,35,38,31,22,92,59,26,30.23,30.15,30.06,10,10,10,16,7,20,0.00,5,Fog,61
2013-3-20,60,48,36,31,27,20,59,43,27,30.31,30.22,30.14,10,10,10,22,8,29,0.00,3,,329
2013-3-21,46,40,33,36,25,15,93,59,33,30.14,30.02,29.91,10,8,3,14,9,20,0.41,7,Rain,81
2013-3-22,45,41,37,43,39,35,100,85,70,29.95,29.91,29.87,10,5,1,16,10,20,0.48,8,Rain,56
2013-3-23,48,45,42,46,43,40,100,90,80,29.93,29.84,29.72,6,2,0,14,8,17,0.22,8,Fog-Rain,29
2013-3-24,47,41,34,45,37,24,93,75,57,30.09,29.79,29.66,10,7,2,36,18,47,0.01,7,Rain-Thunderstorm,287
2013-3-25,47,39,31,23,21,19,69,54,39,30.34,30.21,30.09,10,10,10,29,16,37,0.00,3,,297
2013-3-26,48,39,29,29,23,20,76,53,32,30.45,30.39,30.34,10,10,10,15,10,21,0.00,1,,316
2013-3-27,61,45,29,37,31,27,92,61,29,30.43,30.35,30.26,10,10,10,16,6,20,0.00,1,,155
2013-3-28,73,57,40,47,41,33,82,60,38,30.32,30.26,30.18,10,10,10,16,5,21,0.00,5,,177
2013-3-29,62,56,50,56,51,39,100,83,53,30.25,30.20,30.15,10,7,2,16,4,,0.39,8,Rain-Thunderstorm,124
2013-3-30,59,55,51,57,54,51,100,94,87,30.17,30.06,29.95,10,5,0,15,4,18,0.59,7,Fog-Rain-Thunderstorm,84
2013-3-31,66,58,50,56,54,50,100,82,63,29.98,29.93,29.86,10,6,0,21,4,24,1.13,6,Fog-Rain-Thunderstorm,33